Millboro Springs, Virginia
Current Conditions -  °F | °C
As of 3:55 PM on Thursday 23 Oct 2014 (Local Time) from KHSP Reporting Station
Overcast Overcast  
Wind Chill: 39°   Ceiling: 1400
Heat Index: 46°   Visibility: 10mi
Dew Point: 38°   Wind: 14mph
Humidity: 76%   Direction: 310°NW
Pressure: 30"   Gusts: 24mph
Location:  38.028°N, 79.6492°W
Report Text: KHSP 231955Z AUTO 31012G21KT 10SM OVC014 08/04 A3000 RMK AO2 T00750035
Loading
Personal Weather Stations






























Interactive Weather Map
Tropical Storm Tracking
New forecast layout! Learn more

10-Day Weather Forecast

Advertisements
Track Severe Weather on mobile